createdAt,value
2023-02-04T00:00:43.345Z,9.03
2023-02-04T00:03:11.911Z,9.05
2023-02-04T00:05:42.705Z,9.08
2023-02-04T00:08:11.718Z,9.06
2023-02-04T00:10:41.741Z,9.07
2023-02-04T00:13:10.118Z,9.07
2023-02-04T00:15:38.795Z,9.10
2023-02-04T00:18:09.901Z,9.12
2023-02-04T00:20:39.522Z,9.08
2023-02-04T00:23:08.066Z,9.09
2023-02-04T00:25:37.659Z,9.14
2023-02-04T00:28:06.549Z,9.19
2023-02-04T00:30:35.324Z,9.11
2023-02-04T00:33:04.072Z,9.13
2023-02-04T00:35:33.945Z,9.13
2023-02-04T00:38:02.553Z,9.16
2023-02-04T00:40:32.560Z,9.15
2023-02-04T00:43:03.376Z,9.12
2023-02-04T00:45:32.156Z,9.10
2023-02-04T00:48:00.802Z,9.13
2023-02-04T00:50:29.756Z,9.13
2023-02-04T00:53:02.516Z,9.15
2023-02-04T00:55:31.053Z,9.16
2023-02-04T00:58:00.033Z,9.14
2023-02-04T01:00:28.878Z,9.14
2023-02-04T01:02:58.010Z,9.12
2023-02-04T01:05:26.934Z,9.12
2023-02-04T01:07:55.846Z,9.11
2023-02-04T01:10:26.984Z,9.12
2023-02-04T01:12:55.522Z,9.12
2023-02-04T01:15:24.261Z,9.19
2023-02-04T01:17:52.614Z,9.16
2023-02-04T01:20:21.100Z,9.12
2023-02-04T01:22:49.715Z,9.14
2023-02-04T01:25:19.569Z,9.12
2023-02-04T01:27:49.630Z,9.16
2023-02-04T01:30:18.347Z,9.18
2023-02-04T01:32:47.023Z,9.23
2023-02-04T01:35:15.694Z,9.19
2023-02-04T01:37:44.093Z,9.17
2023-02-04T01:40:13.907Z,9.15
2023-02-04T01:42:42.619Z,9.12
2023-02-04T01:45:13.420Z,9.14
2023-02-04T01:47:43.694Z,9.15
2023-02-04T01:50:14.975Z,9.13
2023-02-04T01:52:44.519Z,9.11
2023-02-04T01:55:18.041Z,9.12
2023-02-04T01:57:49.170Z,9.11
2023-02-04T02:00:25.805Z,9.11
2023-02-04T02:02:56.339Z,9.11
2023-02-04T02:05:27.614Z,9.12
2023-02-04T02:07:59.555Z,9.05
2023-02-04T02:10:28.954Z,9.06
2023-02-04T02:12:58.502Z,9.05
2023-02-04T02:15:29.965Z,9.07
2023-02-04T02:17:58.393Z,9.07
2023-02-04T02:20:29.990Z,9.11
2023-02-04T02:23:08.098Z,9.10
2023-02-04T02:25:38.457Z,9.09
2023-02-04T02:28:13.944Z,9.10
2023-02-04T02:30:45.997Z,9.08
2023-02-04T02:33:17.615Z,9.06
2023-02-04T02:35:49.911Z,9.11
2023-02-04T02:38:21.256Z,9.12
2023-02-04T02:40:52.974Z,9.06
2023-02-04T02:43:25.999Z,9.10
2023-02-04T02:45:58.999Z,9.09
2023-02-04T02:48:27.837Z,9.19
2023-02-04T02:50:56.528Z,9.11
2023-02-04T02:53:25.122Z,9.06
2023-02-04T02:55:56.644Z,9.03
2023-02-04T02:58:29.926Z,9.05
2023-02-04T03:00:59.022Z,9.05
2023-02-04T03:03:29.761Z,9.03
2023-02-04T03:06:03.740Z,9.05
2023-02-04T03:08:32.333Z,9.06
2023-02-04T03:11:02.758Z,9.01
2023-02-04T03:13:31.314Z,9.05
2023-02-04T03:16:00.236Z,8.98
2023-02-04T03:18:29.057Z,8.93
2023-02-04T03:20:59.859Z,8.87
2023-02-04T03:23:29.206Z,8.96
2023-02-04T03:25:57.967Z,8.89
2023-02-04T03:28:28.299Z,8.88
2023-02-04T03:30:57.211Z,8.90
2023-02-04T03:33:32.009Z,8.86
2023-02-04T03:36:00.793Z,8.85
2023-02-04T03:38:29.818Z,8.83
2023-02-04T03:40:58.453Z,8.80
2023-02-04T03:43:35.926Z,8.82
2023-02-04T03:46:04.551Z,8.83
2023-02-04T03:48:33.580Z,8.83
2023-02-04T03:51:02.995Z,8.80
2023-02-04T03:53:31.547Z,8.80
2023-02-04T03:56:00.138Z,8.81
2023-02-04T03:58:28.707Z,8.79
2023-02-04T04:00:58.994Z,8.76
2023-02-04T04:03:27.412Z,8.73
2023-02-04T04:05:57.164Z,8.77
2023-02-04T04:08:26.769Z,8.83
2023-02-04T04:10:55.481Z,8.82
2023-02-04T04:13:24.084Z,8.80
2023-02-04T04:15:52.439Z,8.77
2023-02-04T04:18:22.304Z,8.80
2023-02-04T04:20:51.056Z,8.79
2023-02-04T04:23:19.668Z,8.76
2023-02-04T04:25:48.180Z,8.73
2023-02-04T04:28:17.820Z,8.72
2023-02-04T04:30:46.650Z,8.72
2023-02-04T04:33:15.490Z,8.74
2023-02-04T04:35:46.425Z,8.70
2023-02-04T04:38:15.220Z,8.69
2023-02-04T04:40:44.120Z,8.73
2023-02-04T04:43:12.668Z,8.66
2023-02-04T04:45:41.582Z,8.64
2023-02-04T04:48:11.224Z,8.72
2023-02-04T04:50:39.728Z,8.69
2023-02-04T04:53:11.590Z,8.63
2023-02-04T04:55:40.087Z,8.63
2023-02-04T04:58:10.544Z,8.63
2023-02-04T05:00:39.290Z,8.71
2023-02-04T05:03:07.916Z,8.68
2023-02-04T05:05:40.940Z,8.74
2023-02-04T05:08:13.489Z,8.78
2023-02-04T05:10:44.572Z,8.73
2023-02-04T05:13:13.163Z,8.73
2023-02-04T05:15:42.720Z,8.72
2023-02-04T05:18:11.281Z,8.69
2023-02-04T05:20:39.907Z,8.68
2023-02-04T05:23:08.619Z,8.65
2023-02-04T05:25:40.075Z,8.66
2023-02-04T05:28:08.726Z,8.68
2023-02-04T05:30:37.153Z,8.64
2023-02-04T05:33:05.596Z,8.67
2023-02-04T05:35:34.053Z,8.66
2023-02-04T05:38:08.335Z,8.67
2023-02-04T05:40:39.483Z,8.73
2023-02-04T05:43:08.113Z,8.70
2023-02-04T05:45:37.768Z,8.74
2023-02-04T05:48:06.982Z,8.68
2023-02-04T05:50:37.738Z,8.71
2023-02-04T05:53:06.869Z,8.71
2023-02-04T05:55:35.567Z,8.72
2023-02-04T05:58:05.480Z,8.73
2023-02-04T06:00:34.419Z,8.72
2023-02-04T06:03:03.230Z,8.73
2023-02-04T06:05:33.847Z,8.73
2023-02-04T06:08:02.384Z,8.76
2023-02-04T06:10:31.302Z,8.76
2023-02-04T06:13:00.335Z,8.74
2023-02-04T06:15:30.057Z,8.71
2023-02-04T06:17:58.953Z,8.70
2023-02-04T06:20:30.020Z,8.70
2023-02-04T06:22:58.636Z,8.68
2023-02-04T06:25:27.331Z,8.67
2023-02-04T06:27:55.945Z,8.69
2023-02-04T06:30:24.601Z,8.68
2023-02-04T06:32:55.424Z,8.70
2023-02-04T06:35:24.262Z,8.69
2023-02-04T06:37:53.064Z,8.68
2023-02-04T06:40:21.740Z,8.71
2023-02-04T06:42:50.282Z,8.65
2023-02-04T06:45:18.867Z,8.63
2023-02-04T06:47:47.950Z,8.63
2023-02-04T06:50:19.075Z,8.63
2023-02-04T06:52:47.970Z,8.62
2023-02-04T06:55:17.255Z,8.65
2023-02-04T06:57:45.944Z,8.65
2023-02-04T07:00:15.587Z,8.66
2023-02-04T07:02:46.398Z,8.72
2023-02-04T07:05:14.751Z,8.68
2023-02-04T07:07:44.730Z,8.66
2023-02-04T07:10:13.697Z,8.63
2023-02-04T07:12:42.356Z,8.62
2023-02-04T07:15:12.324Z,8.62
2023-02-04T07:17:41.004Z,8.61
2023-02-04T07:20:11.599Z,8.60
2023-02-04T07:22:40.237Z,8.60
2023-02-04T07:25:11.755Z,8.69
2023-02-04T07:27:40.060Z,8.58
2023-02-04T07:30:10.433Z,8.60
2023-02-04T07:32:38.998Z,8.64
2023-02-04T07:35:08.546Z,8.60
2023-02-04T07:37:38.519Z,8.57
2023-02-04T07:40:07.949Z,8.58
2023-02-04T07:42:38.358Z,8.59
2023-02-04T07:45:07.775Z,8.62
2023-02-04T07:47:36.419Z,8.63
2023-02-04T07:50:05.392Z,8.65
2023-02-04T07:52:33.957Z,8.67
2023-02-04T07:55:02.396Z,8.69
2023-02-04T07:57:31.105Z,8.65
2023-02-04T08:00:01.001Z,8.64
2023-02-04T08:02:29.574Z,8.65
2023-02-04T08:04:58.004Z,8.68
2023-02-04T08:07:27.768Z,8.66
2023-02-04T08:09:57.606Z,8.68
2023-02-04T08:12:26.312Z,8.65
2023-02-04T08:14:55.139Z,8.73
2023-02-04T08:17:26.469Z,8.75
2023-02-04T08:19:58.838Z,8.76
2023-02-04T08:22:27.237Z,8.71
2023-02-04T08:24:55.667Z,8.73
2023-02-04T08:27:24.288Z,8.71
2023-02-04T08:29:52.792Z,8.71
2023-02-04T08:32:21.768Z,8.73
2023-02-04T08:34:51.705Z,8.76
2023-02-04T08:37:20.208Z,8.74
2023-02-04T08:39:49.451Z,8.74
2023-02-04T08:42:19.021Z,8.76
2023-02-04T08:44:47.617Z,8.79
2023-02-04T08:47:16.366Z,8.73
2023-02-04T08:49:45.982Z,8.76
2023-02-04T08:52:16.077Z,8.78
2023-02-04T08:54:45.633Z,8.82
2023-02-04T08:57:14.162Z,8.83
2023-02-04T08:59:42.926Z,8.87
2023-02-04T09:02:12.837Z,8.82
2023-02-04T09:04:41.430Z,8.82
2023-02-04T09:07:10.159Z,8.82
2023-02-04T09:09:40.257Z,8.83
2023-02-04T09:12:08.644Z,8.83
2023-02-04T09:14:37.306Z,8.80
2023-02-04T09:17:07.709Z,8.71
2023-02-04T09:19:37.512Z,8.69
2023-02-04T09:22:08.267Z,8.57
2023-02-04T09:24:36.735Z,8.53
2023-02-04T09:27:06.829Z,8.56
2023-02-04T09:29:45.588Z,8.54
2023-02-04T09:32:14.927Z,8.52
2023-02-04T09:34:46.138Z,8.54
2023-02-04T09:41:01.572Z,8.67
2023-02-04T10:09:01.197Z,9.16
2023-02-04T10:43:28.158Z,9.48
2023-02-04T10:46:09.625Z,9.53
2023-02-04T10:48:43.046Z,9.47
2023-02-04T11:23:56.079Z,10.03
2023-02-04T11:26:38.217Z,10.06
2023-02-04T11:29:43.567Z,10.12
2023-02-04T11:33:08.602Z,10.11
2023-02-04T11:35:37.421Z,10.19
2023-02-04T11:38:28.071Z,10.23
2023-02-04T11:41:18.426Z,10.26
2023-02-04T11:44:00.227Z,10.27
2023-02-04T11:46:38.280Z,10.19
2023-02-04T11:49:26.912Z,10.25
2023-02-04T11:55:47.228Z,10.50
2023-02-04T11:58:19.885Z,10.48
2023-02-04T12:00:53.441Z,10.64
2023-02-04T12:03:48.039Z,10.59
2023-02-04T12:09:57.180Z,10.61
2023-02-04T12:12:28.929Z,10.66
2023-02-04T12:15:24.232Z,10.75
2023-02-04T12:18:17.108Z,10.84
2023-02-04T12:21:21.318Z,10.73
2023-02-04T12:23:52.007Z,10.64
2023-02-04T12:26:37.161Z,10.66
2023-02-04T12:29:24.321Z,10.68
2023-02-04T12:34:59.440Z,10.66
2023-02-04T12:44:16.852Z,10.82
2023-02-04T12:46:50.005Z,11.09
2023-02-04T12:56:29.645Z,11.41
2023-02-04T13:04:08.999Z,11.38
2023-02-04T13:06:37.574Z,11.39
2023-02-04T13:09:05.826Z,11.37
2023-02-04T13:11:35.612Z,11.64
2023-02-04T13:14:04.461Z,11.49
2023-02-04T13:16:33.087Z,11.49
2023-02-04T13:19:01.710Z,11.55
2023-02-04T13:21:31.525Z,11.52
2023-02-04T13:24:00.453Z,11.44
2023-02-04T13:26:29.030Z,11.33
2023-02-04T13:28:59.133Z,11.18
2023-02-04T13:31:28.566Z,11.14
2023-02-04T13:40:09.822Z,11.22
2023-02-04T13:42:38.495Z,11.15
2023-02-04T13:45:12.712Z,11.20
2023-02-04T13:47:41.305Z,11.13
2023-02-04T13:50:10.410Z,11.14
2023-02-04T13:52:39.027Z,11.18
2023-02-04T13:55:07.946Z,11.18
2023-02-04T13:57:37.780Z,11.14
2023-02-04T14:00:08.719Z,11.17
2023-02-04T14:02:37.874Z,11.18
2023-02-04T14:05:06.954Z,11.18
2023-02-04T14:07:36.088Z,11.26
2023-02-04T14:10:04.749Z,11.18
2023-02-04T14:12:33.236Z,11.15
2023-02-04T14:15:01.535Z,11.18
2023-02-04T14:17:31.678Z,11.28
2023-02-04T14:20:00.302Z,11.22
2023-02-04T14:22:29.031Z,11.35
2023-02-04T14:24:57.628Z,11.28
2023-02-04T14:27:26.127Z,11.38
2023-02-04T14:29:55.070Z,11.29
2023-02-04T14:32:23.692Z,11.27
2023-02-04T14:34:53.583Z,11.25
2023-02-04T14:37:21.997Z,11.27
2023-02-04T14:39:50.464Z,11.19
2023-02-04T14:42:19.253Z,11.16
2023-02-04T14:44:47.704Z,11.11
2023-02-04T14:47:16.290Z,11.00
2023-02-04T14:49:44.868Z,10.97
2023-02-04T14:52:14.938Z,10.83
2023-02-04T14:54:43.427Z,10.65
2023-02-04T14:57:12.195Z,10.52
2023-02-04T14:59:40.713Z,10.53
2023-02-04T15:02:09.625Z,10.43
2023-02-04T15:04:38.069Z,10.29
2023-02-04T15:07:06.712Z,10.24
2023-02-04T15:09:36.764Z,10.15
2023-02-04T15:12:06.262Z,10.13
2023-02-04T15:14:35.106Z,10.10
2023-02-04T15:17:04.957Z,10.09
2023-02-04T15:19:33.534Z,10.02
2023-02-04T15:22:02.235Z,9.93
2023-02-04T15:24:30.820Z,9.85
2023-02-04T15:27:00.826Z,9.78
2023-02-04T15:29:30.653Z,9.73
2023-02-04T15:31:59.191Z,9.58
2023-02-04T15:34:27.862Z,9.49
2023-02-04T15:36:56.654Z,9.45
2023-02-04T15:39:25.274Z,9.41
2023-02-04T15:41:53.950Z,9.36
2023-02-04T15:44:24.583Z,9.35
2023-02-04T15:46:54.484Z,9.30
2023-02-04T15:49:23.209Z,9.21
2023-02-04T15:51:51.858Z,9.19
2023-02-04T15:54:20.452Z,9.14
2023-02-04T15:56:48.976Z,9.13
2023-02-04T15:59:17.669Z,8.96
2023-02-04T16:02:01.244Z,8.81
2023-02-04T16:04:30.036Z,8.68
2023-02-04T16:06:59.784Z,8.54
2023-02-04T16:09:28.419Z,8.05
2023-02-04T16:11:58.013Z,7.71
2023-02-04T16:14:26.576Z,7.58
2023-02-04T16:16:57.657Z,7.56
2023-02-04T16:19:26.200Z,7.45
2023-02-04T16:21:54.781Z,7.39
2023-02-04T16:24:23.276Z,7.40
2023-02-04T16:26:51.751Z,7.36
2023-02-04T16:29:21.575Z,7.29
2023-02-04T16:31:50.729Z,7.32
2023-02-04T16:34:20.848Z,7.36
2023-02-04T16:36:49.504Z,7.31
2023-02-04T16:39:18.176Z,7.35
2023-02-04T16:41:46.943Z,7.32
2023-02-04T16:44:15.861Z,7.29
2023-02-04T16:46:44.571Z,7.34
2023-02-04T16:49:13.261Z,7.34
2023-02-04T16:51:43.305Z,7.33
2023-02-04T16:54:11.905Z,7.32
2023-02-04T16:56:40.405Z,7.28
2023-02-04T16:59:09.107Z,7.24
2023-02-04T17:01:37.760Z,7.22
2023-02-04T17:04:06.751Z,7.22
2023-02-04T17:06:36.053Z,7.25
2023-02-04T17:09:06.605Z,7.25
2023-02-04T17:11:35.155Z,7.29
2023-02-04T17:14:06.637Z,7.29
2023-02-04T17:16:35.555Z,7.27
2023-02-04T17:19:04.858Z,7.27
2023-02-04T17:21:33.644Z,7.24
2023-02-04T17:24:04.222Z,7.29
2023-02-04T17:26:39.121Z,7.25
2023-02-04T17:29:09.186Z,7.26
2023-02-04T17:31:38.884Z,7.22
2023-02-04T17:34:08.098Z,7.22
2023-02-04T17:36:36.990Z,7.24
2023-02-04T17:39:06.252Z,7.22
2023-02-04T17:41:36.684Z,7.26
2023-02-04T17:44:05.428Z,7.25
2023-02-04T17:46:34.705Z,7.20
2023-02-04T17:49:03.541Z,7.17
2023-02-04T17:51:32.246Z,7.12
2023-02-04T17:54:01.195Z,7.11
2023-02-04T17:56:29.849Z,7.07
2023-02-04T17:59:00.041Z,7.03
2023-02-04T18:01:29.944Z,7.04
2023-02-04T18:03:59.868Z,7.00
2023-02-04T18:06:30.026Z,6.95
2023-02-04T18:09:02.405Z,6.94
2023-02-04T18:11:33.201Z,6.92
2023-02-04T18:14:14.225Z,6.91
2023-02-04T18:16:43.261Z,6.88
2023-02-04T18:19:19.552Z,6.86
2023-02-04T18:21:48.769Z,6.80
2023-02-04T18:24:20.022Z,6.80
2023-02-04T18:26:50.614Z,6.79
2023-02-04T18:29:34.394Z,6.77
2023-02-04T18:32:08.123Z,6.72
2023-02-04T18:34:38.856Z,6.70
2023-02-04T18:37:30.734Z,6.68
2023-02-04T18:40:19.971Z,6.65
2023-02-04T18:42:50.296Z,6.65
2023-02-04T18:45:26.873Z,6.59
2023-02-04T18:47:57.742Z,6.53
2023-02-04T18:50:30.201Z,6.49
2023-02-04T18:53:03.291Z,6.47
2023-02-04T18:55:36.041Z,6.40
2023-02-04T18:58:28.582Z,6.38
2023-02-04T19:01:02.192Z,6.32
2023-02-04T19:03:37.759Z,6.28
2023-02-04T19:06:26.067Z,6.26
2023-02-04T19:08:56.466Z,6.23
2023-02-04T19:11:35.428Z,6.18
2023-02-04T19:14:15.661Z,6.16
2023-02-04T19:16:47.253Z,6.10
2023-02-04T19:19:38.868Z,6.07
2023-02-04T19:22:20.685Z,5.98
2023-02-04T19:24:49.301Z,5.89
2023-02-04T19:27:31.529Z,5.84
2023-02-04T19:30:02.128Z,5.77
2023-02-04T19:32:41.808Z,5.68
2023-02-04T19:35:19.171Z,5.63
2023-02-04T19:37:54.088Z,5.56
2023-02-04T19:40:32.208Z,5.56
2023-02-04T19:43:18.312Z,5.49
2023-02-04T19:45:48.136Z,5.47
2023-02-04T19:48:21.886Z,5.41
2023-02-04T19:50:54.226Z,5.38
2023-02-04T19:53:26.226Z,5.31
2023-02-04T19:55:55.822Z,5.27
2023-02-04T19:58:26.964Z,5.27
2023-02-04T20:01:01.290Z,5.25
2023-02-04T20:03:37.196Z,5.15
2023-02-04T20:06:34.500Z,5.09
2023-02-04T20:09:08.079Z,5.01
2023-02-04T20:11:45.237Z,4.94
2023-02-04T20:14:30.190Z,4.85
2023-02-04T20:17:01.164Z,4.90
2023-02-04T20:19:38.065Z,4.90
2023-02-04T20:22:39.883Z,4.92
2023-02-04T20:25:42.344Z,4.93
2023-02-04T20:28:30.300Z,4.97
2023-02-04T20:31:02.012Z,4.97
2023-02-04T20:33:38.001Z,4.90
2023-02-04T20:36:36.037Z,4.83
2023-02-04T20:39:39.015Z,4.77
2023-02-04T20:42:26.194Z,4.74
2023-02-04T20:44:54.993Z,4.69
2023-02-04T20:47:25.274Z,4.70
2023-02-04T20:49:57.671Z,4.76
2023-02-04T20:53:16.669Z,4.75
2023-02-04T20:55:51.440Z,4.70
2023-02-04T20:58:23.085Z,4.69
2023-02-04T21:00:54.326Z,4.69
2023-02-04T21:03:29.526Z,4.67
2023-02-04T21:06:00.609Z,4.63
2023-02-04T21:08:42.060Z,4.63
2023-02-04T21:11:15.385Z,4.63
2023-02-04T21:13:44.203Z,4.61
2023-02-04T21:16:13.849Z,4.58
2023-02-04T21:18:42.546Z,4.56
2023-02-04T21:21:11.858Z,4.53
2023-02-04T21:23:40.899Z,4.51
2023-02-04T21:26:10.772Z,4.49
2023-02-04T21:28:40.873Z,4.45
2023-02-04T21:31:11.809Z,4.40
2023-02-04T21:33:40.473Z,4.36
2023-02-04T21:36:10.412Z,4.32
2023-02-04T21:38:39.171Z,4.28
2023-02-04T21:41:09.069Z,4.26
2023-02-04T21:43:39.054Z,4.25
2023-02-04T21:46:09.335Z,4.18
2023-02-04T21:48:37.935Z,4.17
2023-02-04T21:51:07.320Z,4.13
2023-02-04T21:53:36.282Z,4.11
2023-02-04T21:56:11.661Z,4.10
2023-02-04T21:58:40.346Z,4.00
2023-02-04T22:01:11.535Z,3.98
2023-02-04T22:03:40.358Z,3.95
2023-02-04T22:06:10.186Z,3.91
2023-02-04T22:08:40.849Z,3.82
2023-02-04T22:11:09.425Z,3.80
2023-02-04T22:13:38.027Z,3.84
2023-02-04T22:16:06.683Z,3.82
2023-02-04T22:18:36.780Z,3.81
2023-02-04T22:21:07.651Z,3.80
2023-02-04T22:23:36.299Z,3.76
2023-02-04T22:26:05.304Z,3.68
2023-02-04T22:28:34.237Z,3.57
2023-02-04T22:31:03.228Z,3.46
2023-02-04T22:33:31.893Z,3.39
2023-02-04T22:36:02.069Z,3.39
2023-02-04T22:38:30.638Z,3.39
2023-02-04T22:40:59.181Z,3.40
2023-02-04T22:43:27.672Z,3.38
2023-02-04T22:45:56.409Z,3.39
2023-02-04T22:48:25.523Z,3.32
2023-02-04T22:50:55.662Z,3.33
2023-02-04T22:53:25.755Z,3.31
2023-02-04T22:55:54.280Z,3.27
2023-02-04T22:58:23.063Z,3.27
2023-02-04T23:00:51.580Z,3.28
2023-02-04T23:03:20.117Z,3.29
2023-02-04T23:05:49.854Z,3.32
2023-02-04T23:08:18.626Z,3.31
2023-02-04T23:10:48.887Z,3.34
2023-02-04T23:13:18.067Z,3.34
2023-02-04T23:15:46.794Z,3.35
2023-02-04T23:18:15.387Z,3.30
2023-02-04T23:20:44.191Z,3.18
2023-02-04T23:23:17.768Z,3.13
2023-02-04T23:25:48.887Z,3.11
2023-02-04T23:28:18.525Z,3.09
2023-02-04T23:30:47.294Z,3.06
2023-02-04T23:33:17.200Z,3.07
2023-02-04T23:35:46.898Z,3.08
2023-02-04T23:38:15.703Z,3.08
2023-02-04T23:40:45.375Z,3.08
2023-02-04T23:43:15.640Z,2.96
2023-02-04T23:45:45.788Z,2.90
2023-02-04T23:48:14.416Z,2.84
2023-02-04T23:50:43.395Z,2.85
2023-02-04T23:53:12.005Z,2.86
2023-02-04T23:55:40.594Z,2.85
2023-02-04T23:58:09.242Z,2.84
